sensor_id;sensor_type;location;lat;lon;timestamp;pressure;altitude;pressure_sealevel;temperature
65316;BMP280;51920;53.952;10.292;2023-03-04T00:01:40;101460.47;;;5.55
65316;BMP280;51920;53.952;10.292;2023-03-04T00:04:05;101444.19;;;5.60
65316;BMP280;51920;53.952;10.292;2023-03-04T00:06:31;101463.00;;;5.60
65316;BMP280;51920;53.952;10.292;2023-03-04T00:08:56;101458.41;;;5.61
65316;BMP280;51920;53.952;10.292;2023-03-04T00:11:22;101455.81;;;5.64
65316;BMP280;51920;53.952;10.292;2023-03-04T00:13:47;101450.81;;;5.63
65316;BMP280;51920;53.952;10.292;2023-03-04T00:16:13;101442.28;;;5.61
65316;BMP280;51920;53.952;10.292;2023-03-04T00:18:38;101442.53;;;5.68
65316;BMP280;51920;53.952;10.292;2023-03-04T00:21:04;101446.03;;;5.69
65316;BMP280;51920;53.952;10.292;2023-03-04T00:23:29;101447.13;;;5.68
65316;BMP280;51920;53.952;10.292;2023-03-04T00:25:55;101440.50;;;5.65
65316;BMP280;51920;53.952;10.292;2023-03-04T00:28:20;101449.66;;;5.73
65316;BMP280;51920;53.952;10.292;2023-03-04T00:30:45;101448.72;;;5.69
65316;BMP280;51920;53.952;10.292;2023-03-04T00:33:11;101441.41;;;5.78
65316;BMP280;51920;53.952;10.292;2023-03-04T00:35:36;101435.09;;;5.74
65316;BMP280;51920;53.952;10.292;2023-03-04T00:38:02;101441.59;;;5.73
65316;BMP280;51920;53.952;10.292;2023-03-04T00:40:27;101434.78;;;5.75
65316;BMP280;51920;53.952;10.292;2023-03-04T00:42:53;101436.03;;;5.78
65316;BMP280;51920;53.952;10.292;2023-03-04T00:45:18;101433.66;;;5.76
65316;BMP280;51920;53.952;10.292;2023-03-04T00:47:44;101432.88;;;5.76
65316;BMP280;51920;53.952;10.292;2023-03-04T00:50:10;101433.34;;;5.78
65316;BMP280;51920;53.952;10.292;2023-03-04T00:52:36;101426.38;;;5.77
65316;BMP280;51920;53.952;10.292;2023-03-04T00:55:01;101430.66;;;5.78
65316;BMP280;51920;53.952;10.292;2023-03-04T00:57:27;101422.13;;;5.76
65316;BMP280;51920;53.952;10.292;2023-03-04T00:59:52;101421.50;;;5.79
65316;BMP280;51920;53.952;10.292;2023-03-04T01:02:18;101415.63;;;5.77
65316;BMP280;51920;53.952;10.292;2023-03-04T01:04:43;101417.84;;;5.75
65316;BMP280;51920;53.952;10.292;2023-03-04T01:07:09;101406.78;;;5.76
65316;BMP280;51920;53.952;10.292;2023-03-04T01:09:34;101407.25;;;5.78
65316;BMP280;51920;53.952;10.292;2023-03-04T01:12:01;101402.28;;;5.80
65316;BMP280;51920;53.952;10.292;2023-03-04T01:14:26;101394.22;;;5.80
65316;BMP280;51920;53.952;10.292;2023-03-04T01:16:52;101403.78;;;5.78
65316;BMP280;51920;53.952;10.292;2023-03-04T01:19:17;101406.94;;;5.80
65316;BMP280;51920;53.952;10.292;2023-03-04T01:21:43;101405.38;;;5.79
65316;BMP280;51920;53.952;10.292;2023-03-04T01:24:08;101403.09;;;5.81
65316;BMP280;51920;53.952;10.292;2023-03-04T01:26:34;101399.75;;;5.84
65316;BMP280;51920;53.952;10.292;2023-03-04T01:29:00;101391.22;;;5.82
65316;BMP280;51920;53.952;10.292;2023-03-04T01:31:25;101388.81;;;5.89
65316;BMP280;51920;53.952;10.292;2023-03-04T01:33:51;101396.75;;;5.85
65316;BMP280;51920;53.952;10.292;2023-03-04T01:36:16;101385.41;;;5.80
65316;BMP280;51920;53.952;10.292;2023-03-04T01:38:42;101390.78;;;5.80
65316;BMP280;51920;53.952;10.292;2023-03-04T01:41:09;101386.16;;;5.80
65316;BMP280;51920;53.952;10.292;2023-03-04T01:43:36;101385.84;;;5.82
65316;BMP280;51920;53.952;10.292;2023-03-04T01:46:02;101384.75;;;5.83
65316;BMP280;51920;53.952;10.292;2023-03-04T01:48:36;101375.91;;;5.82
65316;BMP280;51920;53.952;10.292;2023-03-04T01:51:04;101370.84;;;5.81
65316;BMP280;51920;53.952;10.292;2023-03-04T01:53:31;101346.34;;;5.82
65316;BMP280;51920;53.952;10.292;2023-03-04T01:56:18;101350.25;;;5.85
65316;BMP280;51920;53.952;10.292;2023-03-04T01:58:44;101357.22;;;5.86
65316;BMP280;51920;53.952;10.292;2023-03-04T02:01:11;101357.22;;;5.86
65316;BMP280;51920;53.952;10.292;2023-03-04T02:03:37;101362.13;;;5.84
65316;BMP280;51920;53.952;10.292;2023-03-04T02:06:03;101355.63;;;5.85
65316;BMP280;51920;53.952;10.292;2023-03-04T02:08:28;101364.81;;;5.84
65316;BMP280;51920;53.952;10.292;2023-03-04T02:10:55;101357.53;;;5.84
65316;BMP280;51920;53.952;10.292;2023-03-04T02:13:21;101348.66;;;5.84
65316;BMP280;51920;53.952;10.292;2023-03-04T02:15:46;101355.63;;;5.85
65316;BMP280;51920;53.952;10.292;2023-03-04T02:18:15;101342.19;;;5.85
65316;BMP280;51920;53.952;10.292;2023-03-04T02:26:26;101340.16;;;5.82
65316;BMP280;51920;53.952;10.292;2023-03-04T02:28:54;101340.16;;;5.82
65316;BMP280;51920;53.952;10.292;2023-03-04T02:31:40;101333.94;;;5.90
65316;BMP280;51920;53.952;10.292;2023-03-04T02:34:18;101336.63;;;5.90
65316;BMP280;51920;53.952;10.292;2023-03-04T02:36:46;101328.75;;;5.85
65316;BMP280;51920;53.952;10.292;2023-03-04T02:41:49;101326.97;;;5.89
65316;BMP280;51920;53.952;10.292;2023-03-04T02:46:45;101328.09;;;5.88
65316;BMP280;51920;53.952;10.292;2023-03-04T02:49:11;101324.97;;;5.86
65316;BMP280;51920;53.952;10.292;2023-03-04T02:51:37;101320.69;;;5.85
65316;BMP280;51920;53.952;10.292;2023-03-04T02:54:03;101317.53;;;5.83
65316;BMP280;51920;53.952;10.292;2023-03-04T02:56:28;101333.22;;;5.81
65316;BMP280;51920;53.952;10.292;2023-03-04T02:58:54;101321.53;;;5.77
65316;BMP280;51920;53.952;10.292;2023-03-04T03:01:19;101316.16;;;5.77
65316;BMP280;51920;53.952;10.292;2023-03-04T03:03:45;101314.06;;;5.82
65316;BMP280;51920;53.952;10.292;2023-03-04T03:06:10;101306.91;;;5.86
65316;BMP280;51920;53.952;10.292;2023-03-04T03:08:36;101299.63;;;5.87
65316;BMP280;51920;53.952;10.292;2023-03-04T03:11:02;101301.09;;;5.84
65316;BMP280;51920;53.952;10.292;2023-03-04T03:13:29;101297.13;;;5.82
65316;BMP280;51920;53.952;10.292;2023-03-04T03:15:55;101301.41;;;5.83
65316;BMP280;51920;53.952;10.292;2023-03-04T03:18:22;101298.06;;;5.86
65316;BMP280;51920;53.952;10.292;2023-03-04T03:20:47;101298.06;;;5.86
65316;BMP280;51920;53.952;10.292;2023-03-04T03:23:13;101273.41;;;5.84
65316;BMP280;51920;53.952;10.292;2023-03-04T03:25:38;101279.25;;;5.86
65316;BMP280;51920;53.952;10.292;2023-03-04T03:28:04;101279.72;;;5.88
65316;BMP280;51920;53.952;10.292;2023-03-04T03:30:30;101281.28;;;5.89
65316;BMP280;51920;53.952;10.292;2023-03-04T03:32:55;101276.94;;;5.97
65316;BMP280;51920;53.952;10.292;2023-03-04T03:35:21;101282.00;;;5.98
65316;BMP280;51920;53.952;10.292;2023-03-04T03:37:46;101282.53;;;5.92
65316;BMP280;51920;53.952;10.292;2023-03-04T03:40:13;101275.03;;;5.97
65316;BMP280;51920;53.952;10.292;2023-03-04T03:42:39;101272.09;;;5.90
65316;BMP280;51920;53.952;10.292;2023-03-04T03:45:05;101284.09;;;5.93
65316;BMP280;51920;53.952;10.292;2023-03-04T03:47:30;101277.47;;;5.90
65316;BMP280;51920;53.952;10.292;2023-03-04T03:49:55;101287.31;;;5.86
65316;BMP280;51920;53.952;10.292;2023-03-04T03:52:21;101295.25;;;5.82
65316;BMP280;51920;53.952;10.292;2023-03-04T03:54:46;101272.81;;;5.78
65316;BMP280;51920;53.952;10.292;2023-03-04T03:57:11;101256.38;;;5.80
65316;BMP280;51920;53.952;10.292;2023-03-04T03:59:37;101280.56;;;5.80
65316;BMP280;51920;53.952;10.292;2023-03-04T04:02:02;101273.53;;;5.88
65316;BMP280;51920;53.952;10.292;2023-03-04T04:04:28;101273.13;;;5.98
65316;BMP280;51920;53.952;10.292;2023-03-04T04:06:53;101286.00;;;5.92
65316;BMP280;51920;53.952;10.292;2023-03-04T04:09:18;101279.06;;;5.91
65316;BMP280;51920;53.952;10.292;2023-03-04T04:11:44;101270.53;;;5.89
65316;BMP280;51920;53.952;10.292;2023-03-04T04:14:13;101276.56;;;5.86
65316;BMP280;51920;53.952;10.292;2023-03-04T04:16:38;101271.38;;;5.81
65316;BMP280;51920;53.952;10.292;2023-03-04T04:19:04;101269.47;;;5.81
65316;BMP280;51920;53.952;10.292;2023-03-04T04:21:29;101267.56;;;5.82
65316;BMP280;51920;53.952;10.292;2023-03-04T04:23:54;101274.75;;;5.78
65316;BMP280;51920;53.952;10.292;2023-03-04T04:26:20;101278.63;;;5.80
65316;BMP280;51920;53.952;10.292;2023-03-04T04:28:45;101283.75;;;5.73
65316;BMP280;51920;53.952;10.292;2023-03-04T04:31:10;101272.88;;;5.70
65316;BMP280;51920;53.952;10.292;2023-03-04T04:33:36;101279.38;;;5.69
65316;BMP280;51920;53.952;10.292;2023-03-04T04:36:01;101265.81;;;5.65
65316;BMP280;51920;53.952;10.292;2023-03-04T04:38:29;101278.13;;;5.66
65316;BMP280;51920;53.952;10.292;2023-03-04T04:40:56;101269.88;;;5.71
65316;BMP280;51920;53.952;10.292;2023-03-04T04:43:23;101271.78;;;5.71
65316;BMP280;51920;53.952;10.292;2023-03-04T04:45:48;101270.88;;;5.66
65316;BMP280;51920;53.952;10.292;2023-03-04T04:48:14;101273.31;;;5.59
65316;BMP280;51920;53.952;10.292;2023-03-04T04:50:39;101275.50;;;5.57
65316;BMP280;51920;53.952;10.292;2023-03-04T04:53:04;101274.72;;;5.57
65316;BMP280;51920;53.952;10.292;2023-03-04T04:55:30;101278.53;;;5.56
65316;BMP280;51920;53.952;10.292;2023-03-04T04:57:55;101270.78;;;5.54
65316;BMP280;51920;53.952;10.292;2023-03-04T05:00:21;101273.03;;;5.52
65316;BMP280;51920;53.952;10.292;2023-03-04T05:02:46;101271.31;;;5.48
65316;BMP280;51920;53.952;10.292;2023-03-04T05:05:12;101273.66;;;5.49
65316;BMP280;51920;53.952;10.292;2023-03-04T05:07:37;101266.06;;;5.51
65316;BMP280;51920;53.952;10.292;2023-03-04T05:10:03;101271.97;;;5.44
65316;BMP280;51920;53.952;10.292;2023-03-04T05:12:28;101266.31;;;5.37
65316;BMP280;51920;53.952;10.292;2023-03-04T05:14:53;101265.53;;;5.37
65316;BMP280;51920;53.952;10.292;2023-03-04T05:17:19;101265.53;;;5.37
65316;BMP280;51920;53.952;10.292;2023-03-04T05:19:44;101255.44;;;5.34
65316;BMP280;51920;53.952;10.292;2023-03-04T05:22:10;101269.06;;;5.29
65316;BMP280;51920;53.952;10.292;2023-03-04T05:24:35;101269.06;;;5.29
65316;BMP280;51920;53.952;10.292;2023-03-04T05:27:01;101265.28;;;5.30
65316;BMP280;51920;53.952;10.292;2023-03-04T05:29:26;101269.97;;;5.33
65316;BMP280;51920;53.952;10.292;2023-03-04T05:31:52;101270.75;;;5.33
65316;BMP280;51920;53.952;10.292;2023-03-04T05:34:17;101271.59;;;5.25
65316;BMP280;51920;53.952;10.292;2023-03-04T05:36:43;101274.59;;;5.23
65316;BMP280;51920;53.952;10.292;2023-03-04T05:39:10;101279.34;;;5.26
65316;BMP280;51920;53.952;10.292;2023-03-04T05:41:36;101263.53;;;5.25
65316;BMP280;51920;53.952;10.292;2023-03-04T05:44:01;101284.09;;;5.21
65316;BMP280;51920;53.952;10.292;2023-03-04T05:46:26;101278.59;;;5.17
65316;BMP280;51920;53.952;10.292;2023-03-04T05:48:53;101278.13;;;5.15
65316;BMP280;51920;53.952;10.292;2023-03-04T05:51:19;101270.53;;;5.17
65316;BMP280;51920;53.952;10.292;2023-03-04T05:53:45;101286.84;;;5.12
65316;BMP280;51920;53.952;10.292;2023-03-04T05:56:14;101286.84;;;5.12
65316;BMP280;51920;53.952;10.292;2023-03-04T05:58:39;101298.31;;;5.21
65316;BMP280;51920;53.952;10.292;2023-03-04T06:01:05;101292.34;;;5.16
65316;BMP280;51920;53.952;10.292;2023-03-04T06:03:31;101293.22;;;5.29
65316;BMP280;51920;53.952;10.292;2023-03-04T06:05:56;101289.47;;;5.21
65316;BMP280;51920;53.952;10.292;2023-03-04T06:08:22;101289.63;;;5.24
65316;BMP280;51920;53.952;10.292;2023-03-04T06:10:51;101290.56;;;5.29
65316;BMP280;51920;53.952;10.292;2023-03-04T06:13:16;101292.03;;;5.17
65316;BMP280;51920;53.952;10.292;2023-03-04T06:15:42;101293.81;;;5.13
65316;BMP280;51920;53.952;10.292;2023-03-04T06:18:07;101294.94;;;5.03
65316;BMP280;51920;53.952;10.292;2023-03-04T06:20:33;101299.53;;;5.03
65316;BMP280;51920;53.952;10.292;2023-03-04T06:22:58;101293.69;;;5.01
65316;BMP280;51920;53.952;10.292;2023-03-04T06:25:24;101292.81;;;5.18
65316;BMP280;51920;53.952;10.292;2023-03-04T06:27:49;101299.81;;;5.10
65316;BMP280;51920;53.952;10.292;2023-03-04T06:30:15;101304.81;;;5.20
65316;BMP280;51920;53.952;10.292;2023-03-04T06:32:41;101307.13;;;5.60
65316;BMP280;51920;53.952;10.292;2023-03-04T06:35:09;101298.63;;;5.50
65316;BMP280;51920;53.952;10.292;2023-03-04T06:37:35;101312.28;;;5.65
65316;BMP280;51920;53.952;10.292;2023-03-04T06:40:01;101300.25;;;5.72
65316;BMP280;51920;53.952;10.292;2023-03-04T06:42:27;101313.97;;;5.79
65316;BMP280;51920;53.952;10.292;2023-03-04T06:44:53;101316.44;;;5.33
65316;BMP280;51920;53.952;10.292;2023-03-04T06:47:18;101320.44;;;5.18
65316;BMP280;51920;53.952;10.292;2023-03-04T06:49:44;101322.41;;;5.09
65316;BMP280;51920;53.952;10.292;2023-03-04T06:52:09;101321.94;;;5.07
65316;BMP280;51920;53.952;10.292;2023-03-04T06:54:37;101322.09;;;5.02
65316;BMP280;51920;53.952;10.292;2023-03-04T06:57:02;101326.38;;;5.03
65316;BMP280;51920;53.952;10.292;2023-03-04T06:59:28;101324.47;;;5.03
65316;BMP280;51920;53.952;10.292;2023-03-04T07:01:53;101318.78;;;5.05
65316;BMP280;51920;53.952;10.292;2023-03-04T07:04:19;101320.38;;;5.06
65316;BMP280;51920;53.952;10.292;2023-03-04T07:06:47;101319.06;;;5.12
65316;BMP280;51920;53.952;10.292;2023-03-04T07:09:12;101308.88;;;5.56
65316;BMP280;51920;53.952;10.292;2023-03-04T07:11:38;101314.31;;;5.69
65316;BMP280;51920;53.952;10.292;2023-03-04T07:14:03;101323.41;;;5.55
65316;BMP280;51920;53.952;10.292;2023-03-04T07:16:28;101318.22;;;5.29
65316;BMP280;51920;53.952;10.292;2023-03-04T07:18:54;101309.53;;;5.23
65316;BMP280;51920;53.952;10.292;2023-03-04T07:21:19;101322.00;;;5.28
65316;BMP280;51920;53.952;10.292;2023-03-04T07:23:45;101319.63;;;5.26
65316;BMP280;51920;53.952;10.292;2023-03-04T07:26:11;101313.66;;;5.21
65316;BMP280;51920;53.952;10.292;2023-03-04T07:28:37;101319.50;;;5.23
65316;BMP280;51920;53.952;10.292;2023-03-04T07:31:19;101317.91;;;5.22
65316;BMP280;51920;53.952;10.292;2023-03-04T07:33:45;101318.38;;;5.24
65316;BMP280;51920;53.952;10.292;2023-03-04T07:36:10;101318.72;;;5.52
65316;BMP280;51920;53.952;10.292;2023-03-04T07:38:42;101319.91;;;5.34
65316;BMP280;51920;53.952;10.292;2023-03-04T07:41:07;101314.41;;;5.30
65316;BMP280;51920;53.952;10.292;2023-03-04T07:43:33;101317.59;;;5.23
65316;BMP280;51920;53.952;10.292;2023-03-04T07:45:59;101318.53;;;5.28
65316;BMP280;51920;53.952;10.292;2023-03-04T07:48:26;101330.22;;;5.32
65316;BMP280;51920;53.952;10.292;2023-03-04T07:51:05;101341.28;;;5.30
65316;BMP280;51920;53.952;10.292;2023-03-04T07:53:31;101341.13;;;5.26
65316;BMP280;51920;53.952;10.292;2023-03-04T07:55:57;101340.81;;;5.19
65316;BMP280;51920;53.952;10.292;2023-03-04T07:58:23;101342.72;;;5.28
65316;BMP280;51920;53.952;10.292;2023-03-04T08:00:48;101353.06;;;5.38
65316;BMP280;51920;53.952;10.292;2023-03-04T08:03:14;101337.34;;;5.28
65316;BMP280;51920;53.952;10.292;2023-03-04T08:05:39;101340.91;;;5.40
65316;BMP280;51920;53.952;10.292;2023-03-04T08:08:05;101341.03;;;5.44
65316;BMP280;51920;53.952;10.292;2023-03-04T08:10:30;101342.84;;;5.82
65316;BMP280;51920;53.952;10.292;2023-03-04T08:12:55;101329.03;;;5.41
65316;BMP280;51920;53.952;10.292;2023-03-04T08:15:21;101362.94;;;5.55
65316;BMP280;51920;53.952;10.292;2023-03-04T08:17:46;101360.72;;;5.57
65316;BMP280;51920;53.952;10.292;2023-03-04T08:20:12;101359.94;;;5.56
65316;BMP280;51920;53.952;10.292;2023-03-04T08:22:37;101352.03;;;5.51
65316;BMP280;51920;53.952;10.292;2023-03-04T08:25:03;101344.72;;;5.60
65316;BMP280;51920;53.952;10.292;2023-03-04T08:27:29;101361.63;;;5.61
65316;BMP280;51920;53.952;10.292;2023-03-04T08:29:54;101363.09;;;5.58
65316;BMP280;51920;53.952;10.292;2023-03-04T08:32:19;101352.78;;;5.60
65316;BMP280;51920;53.952;10.292;2023-03-04T08:34:46;101360.75;;;5.78
65316;BMP280;51920;53.952;10.292;2023-03-04T08:37:11;101364.44;;;5.64
65316;BMP280;51920;53.952;10.292;2023-03-04T08:39:36;101365.59;;;5.63
65316;BMP280;51920;53.952;10.292;2023-03-04T08:42:02;101345.38;;;5.57
65316;BMP280;51920;53.952;10.292;2023-03-04T08:44:27;101354.28;;;5.79
65316;BMP280;51920;53.952;10.292;2023-03-04T08:46:53;101370.31;;;6.30
65316;BMP280;51920;53.952;10.292;2023-03-04T08:49:18;101369.41;;;6.25
65316;BMP280;51920;53.952;10.292;2023-03-04T08:51:44;101367.94;;;6.49
65316;BMP280;51920;53.952;10.292;2023-03-04T08:54:09;101371.59;;;6.32
65316;BMP280;51920;53.952;10.292;2023-03-04T08:56:35;101350.88;;;6.45
65316;BMP280;51920;53.952;10.292;2023-03-04T08:59:00;101369.75;;;7.03
65316;BMP280;51920;53.952;10.292;2023-03-04T09:01:26;101371.28;;;7.04
65316;BMP280;51920;53.952;10.292;2023-03-04T09:03:51;101375.69;;;6.96
65316;BMP280;51920;53.952;10.292;2023-03-04T09:06:17;101369.38;;;6.80
65316;BMP280;51920;53.952;10.292;2023-03-04T09:08:44;101370.53;;;6.58
65316;BMP280;51920;53.952;10.292;2023-03-04T09:11:13;101347.59;;;6.39
65316;BMP280;51920;53.952;10.292;2023-03-04T09:13:38;101369.13;;;6.39
65316;BMP280;51920;53.952;10.292;2023-03-04T09:16:09;101372.00;;;6.22
65316;BMP280;51920;53.952;10.292;2023-03-04T09:18:35;101358.06;;;6.53
65316;BMP280;51920;53.952;10.292;2023-03-04T09:21:00;101349.16;;;6.40
65316;BMP280;51920;53.952;10.292;2023-03-04T09:23:26;101356.09;;;6.29
65316;BMP280;51920;53.952;10.292;2023-03-04T09:25:51;101377.66;;;6.41
65316;BMP280;51920;53.952;10.292;2023-03-04T09:28:17;101380.03;;;6.43
65316;BMP280;51920;53.952;10.292;2023-03-04T09:30:43;101353.91;;;6.43
65316;BMP280;51920;53.952;10.292;2023-03-04T09:33:10;101363.31;;;6.37
65316;BMP280;51920;53.952;10.292;2023-03-04T09:35:36;101345.44;;;6.66
65316;BMP280;51920;53.952;10.292;2023-03-04T09:38:01;101366.59;;;7.01
65316;BMP280;51920;53.952;10.292;2023-03-04T09:40:31;101382.69;;;6.76
65316;BMP280;51920;53.952;10.292;2023-03-04T09:43:01;101358.66;;;6.59
65316;BMP280;51920;53.952;10.292;2023-03-04T09:45:41;101351.69;;;6.58
65316;BMP280;51920;53.952;10.292;2023-03-04T09:48:11;101338.59;;;6.69
65316;BMP280;51920;53.952;10.292;2023-03-04T09:50:48;101338.44;;;6.53
65316;BMP280;51920;53.952;10.292;2023-03-04T09:53:29;101347.25;;;6.74
65316;BMP280;51920;53.952;10.292;2023-03-04T09:55:56;101358.66;;;6.59
65316;BMP280;51920;53.952;10.292;2023-03-04T10:06:39;101370.81;;;6.77
65316;BMP280;51920;53.952;10.292;2023-03-04T10:09:13;101365.28;;;6.61
65316;BMP280;51920;53.952;10.292;2023-03-04T10:12:03;101358.84;;;6.20
65316;BMP280;51920;53.952;10.292;2023-03-04T10:17:35;101373.00;;;7.45
65316;BMP280;51920;53.952;10.292;2023-03-04T10:22:48;101368.38;;;7.09
65316;BMP280;51920;53.952;10.292;2023-03-04T10:27:58;101370.59;;;6.82
65316;BMP280;51920;53.952;10.292;2023-03-04T10:30:50;101373.56;;;6.56
65316;BMP280;51920;53.952;10.292;2023-03-04T10:33:27;101366.44;;;6.39
65316;BMP280;51920;53.952;10.292;2023-03-04T10:38:44;101373.19;;;6.45
65316;BMP280;51920;53.952;10.292;2023-03-04T10:41:15;101371.44;;;6.62
65316;BMP280;51920;53.952;10.292;2023-03-04T10:43:41;101346.16;;;6.42
65316;BMP280;51920;53.952;10.292;2023-03-04T10:46:11;101359.19;;;6.52
65316;BMP280;51920;53.952;10.292;2023-03-04T10:48:40;101359.66;;;6.66
65316;BMP280;51920;53.952;10.292;2023-03-04T10:53:40;101373.31;;;6.95
65316;BMP280;51920;53.952;10.292;2023-03-04T11:01:57;101354.22;;;6.75
65316;BMP280;51920;53.952;10.292;2023-03-04T11:04:24;101371.50;;;6.86
65316;BMP280;51920;53.952;10.292;2023-03-04T11:06:50;101372.19;;;6.83
65316;BMP280;51920;53.952;10.292;2023-03-04T11:09:23;101385.00;;;6.99
65316;BMP280;51920;53.952;10.292;2023-03-04T11:11:50;101380.47;;;6.78
65316;BMP280;51920;53.952;10.292;2023-03-04T11:14:34;101386.88;;;6.86
65316;BMP280;51920;53.952;10.292;2023-03-04T11:17:15;101377.91;;;6.82
65316;BMP280;51920;53.952;10.292;2023-03-04T11:19:45;101375.66;;;6.84
65316;BMP280;51920;53.952;10.292;2023-03-04T11:22:14;101369.81;;;6.82
65316;BMP280;51920;53.952;10.292;2023-03-04T11:24:44;101387.66;;;6.86
65316;BMP280;51920;53.952;10.292;2023-03-04T11:27:43;101378.81;;;6.53
65316;BMP280;51920;53.952;10.292;2023-03-04T11:30:24;101395.47;;;6.79
65316;BMP280;51920;53.952;10.292;2023-03-04T11:32:53;101382.22;;;6.62
65316;BMP280;51920;53.952;10.292;2023-03-04T11:35:33;101380.22;;;6.71
65316;BMP280;51920;53.952;10.292;2023-03-04T11:38:20;101373.97;;;6.92
65316;BMP280;51920;53.952;10.292;2023-03-04T11:40:50;101378.91;;;6.77
65316;BMP280;51920;53.952;10.292;2023-03-04T11:43:37;101379.88;;;6.60
65316;BMP280;51920;53.952;10.292;2023-03-04T11:49:12;101368.81;;;6.53
65316;BMP280;51920;53.952;10.292;2023-03-04T11:54:27;101380.66;;;6.61
65316;BMP280;51920;53.952;10.292;2023-03-04T11:56:59;101373.31;;;6.49
65316;BMP280;51920;53.952;10.292;2023-03-04T12:03:16;101380.22;;;6.71
65316;BMP280;51920;53.952;10.292;2023-03-04T12:06:13;101366.41;;;6.73
65316;BMP280;51920;53.952;10.292;2023-03-04T12:22:50;101347.13;;;6.83
65316;BMP280;51920;53.952;10.292;2023-03-04T12:41:39;101327.38;;;6.79
65316;BMP280;51920;53.952;10.292;2023-03-04T12:44:11;101328.88;;;6.89
65316;BMP280;51920;53.952;10.292;2023-03-04T12:49:40;101321.91;;;6.75
65316;BMP280;51920;53.952;10.292;2023-03-04T12:55:11;101325.06;;;6.77
65316;BMP280;51920;53.952;10.292;2023-03-04T12:57:39;101315.41;;;6.64
65316;BMP280;51920;53.952;10.292;2023-03-04T13:03:16;101322.75;;;6.55
65316;BMP280;51920;53.952;10.292;2023-03-04T13:08:33;101323.78;;;6.50
65316;BMP280;51920;53.952;10.292;2023-03-04T13:24:56;101311.94;;;6.42
65316;BMP280;51920;53.952;10.292;2023-03-04T13:27:47;101327.91;;;6.47
65316;BMP280;51920;53.952;10.292;2023-03-04T13:41:22;101325.69;;;6.62
65316;BMP280;51920;53.952;10.292;2023-03-04T13:43:50;101323.91;;;6.66
65316;BMP280;51920;53.952;10.292;2023-03-04T13:51:23;101324.31;;;6.56
65316;BMP280;51920;53.952;10.292;2023-03-04T13:56:41;101320.19;;;6.71
65316;BMP280;51920;53.952;10.292;2023-03-04T14:01:49;101312.22;;;6.62
65316;BMP280;51920;53.952;10.292;2023-03-04T14:06:42;101316.97;;;6.77
65316;BMP280;51920;53.952;10.292;2023-03-04T14:09:23;101310.44;;;6.78
65316;BMP280;51920;53.952;10.292;2023-03-04T14:11:50;101303.94;;;6.79
65316;BMP280;51920;53.952;10.292;2023-03-04T14:14:23;101314.81;;;6.71
65316;BMP280;51920;53.952;10.292;2023-03-04T14:16:52;101307.53;;;6.71
65316;BMP280;51920;53.952;10.292;2023-03-04T14:21:56;101300.84;;;6.44
65316;BMP280;51920;53.952;10.292;2023-03-04T14:24:24;101311.09;;;6.51
65316;BMP280;51920;53.952;10.292;2023-03-04T14:27:12;101312.69;;;6.52
65316;BMP280;51920;53.952;10.292;2023-03-04T14:29:38;101318.72;;;6.49
65316;BMP280;51920;53.952;10.292;2023-03-04T14:32:05;101311.09;;;6.51
65316;BMP280;51920;53.952;10.292;2023-03-04T14:34:34;101304.81;;;6.46
65316;BMP280;51920;53.952;10.292;2023-03-04T14:37:01;101310.66;;;6.49
65316;BMP280;51920;53.952;10.292;2023-03-04T14:39:30;101308.81;;;6.53
65316;BMP280;51920;53.952;10.292;2023-03-04T14:42:01;101307.53;;;6.59
65316;BMP280;51920;53.952;10.292;2023-03-04T14:44:34;101306.50;;;6.51
65316;BMP280;51920;53.952;10.292;2023-03-04T14:47:35;101299.41;;;6.46
65316;BMP280;51920;53.952;10.292;2023-03-04T14:50:20;101309.59;;;6.53
65316;BMP280;51920;53.952;10.292;2023-03-04T14:52:48;101305.44;;;6.43
65316;BMP280;51920;53.952;10.292;2023-03-04T14:55:22;101300.97;;;6.47
65316;BMP280;51920;53.952;10.292;2023-03-04T14:57:53;101302.00;;;6.43
65316;BMP280;51920;53.952;10.292;2023-03-04T15:00:34;101304.13;;;6.50
65316;BMP280;51920;53.952;10.292;2023-03-04T15:03:21;101302.56;;;6.49
65316;BMP280;51920;53.952;10.292;2023-03-04T15:05:48;101300.75;;;6.53
65316;BMP280;51920;53.952;10.292;2023-03-04T15:08:20;101292.34;;;6.54
65316;BMP280;51920;53.952;10.292;2023-03-04T15:11:00;101294.94;;;6.51
65316;BMP280;51920;53.952;10.292;2023-03-04T15:13:51;101285.38;;;6.41
65316;BMP280;51920;53.952;10.292;2023-03-04T15:16:21;101286.81;;;6.38
65316;BMP280;51920;53.952;10.292;2023-03-04T15:19:05;101280.31;;;6.27
65316;BMP280;51920;53.952;10.292;2023-03-04T15:21:47;101283.00;;;6.27
65316;BMP280;51920;53.952;10.292;2023-03-04T15:24:12;101284.09;;;6.26
65316;BMP280;51920;53.952;10.292;2023-03-04T15:26:40;101279.63;;;6.30
65316;BMP280;51920;53.952;10.292;2023-03-04T15:29:15;101280.31;;;6.27
65316;BMP280;51920;53.952;10.292;2023-03-04T15:31:41;101273.00;;;6.28
65316;BMP280;51920;53.952;10.292;2023-03-04T15:34:12;101282.53;;;6.25
65316;BMP280;51920;53.952;10.292;2023-03-04T15:36:38;101282.53;;;6.25
65316;BMP280;51920;53.952;10.292;2023-03-04T15:39:04;101286.47;;;6.28
65316;BMP280;51920;53.952;10.292;2023-03-04T15:41:30;101283.13;;;6.31
65316;BMP280;51920;53.952;10.292;2023-03-04T15:43:55;101283.78;;;6.28
65316;BMP280;51920;53.952;10.292;2023-03-04T15:46:21;101279.16;;;6.28
65316;BMP280;51920;53.952;10.292;2023-03-04T15:48:47;101278.16;;;6.20
65316;BMP280;51920;53.952;10.292;2023-03-04T15:51:15;101276.69;;;6.23
65316;BMP280;51920;53.952;10.292;2023-03-04T15:53:53;101275.66;;;6.15
65316;BMP280;51920;53.952;10.292;2023-03-04T15:56:22;101286.75;;;6.14
65316;BMP280;51920;53.952;10.292;2023-03-04T15:59:03;101273.63;;;6.12
65316;BMP280;51920;53.952;10.292;2023-03-04T16:01:30;101281.22;;;6.10
65316;BMP280;51920;53.952;10.292;2023-03-04T16:03:55;101273.06;;;6.06
65316;BMP280;51920;53.952;10.292;2023-03-04T16:06:24;101274.19;;;6.05
65316;BMP280;51920;53.952;10.292;2023-03-04T16:08:51;101272.47;;;6.01
65316;BMP280;51920;53.952;10.292;2023-03-04T16:11:21;101277.97;;;6.04
65316;BMP280;51920;53.952;10.292;2023-03-04T16:13:49;101270.75;;;5.96